.
WxDataArchive / Data Records for 2006-07-16
2006-07-15 July 2006 2006-07-17

Data Records for Sunday, 16 July 2006

Time	Temp	Chill	HIndex	Humid	Dewpt	 Wind 	HiWind	WindDir	Rain 	Barom 
-----	----	-----	------	-----	-----	------	------	-------	-----	----- 
00:00	73.0	73.0	73.0	78	65.7	0	0	---	0.00	30.023 
00:05	72.8	72.8	72.8	79	65.9	0	0	---	0.00	30.023 
00:10	72.7	72.7	72.7	79	65.8	0	0	---	0.00	30.023 
00:15	72.3	72.3	72.3	80	65.8	0	0	---	0.00	30.021 
00:20	72.1	72.1	72.1	81	65.9	0	0	---	0.00	30.021 
00:25	72.0	72.0	72.0	81	65.8	0	0	---	0.00	30.021 
00:30	71.8	71.8	71.8	81	65.6	0	0	---	0.00	30.023 
00:35	71.5	71.5	71.5	82	65.7	0	0	---	0.00	30.023 
00:40	71.3	71.3	71.3	82	65.5	0	0	---	0.00	30.023 
00:45	71.1	71.1	71.1	82	65.3	0	0	---	0.00	30.023 
00:50	70.9	70.9	70.9	83	65.5	0	0	---	0.00	30.023 
00:55	70.8	70.8	70.8	83	65.4	0	0	---	0.00	30.023 
01:00	70.6	70.6	70.6	84	65.5	0	0	---	0.00	30.026 
01:05	70.3	70.3	70.3	84	65.2	0	0	---	0.00	30.026 
01:10	70.1	70.1	70.1	84	65.0	0	0	---	0.00	30.026 
01:15	69.9	69.9	69.9	85	65.2	0	0	---	0.00	30.022 
01:20	69.8	69.8	69.8	86	65.4	0	0	---	0.00	30.022 
01:25	69.6	69.6	69.6	87	65.6	0	0	---	0.00	30.022 
01:30	69.4	69.4	69.4	87	65.4	0	0	---	0.00	30.023 
01:35	69.1	69.1	69.1	87	65.1	0	0	---	0.00	30.023 
01:40	68.9	68.9	68.9	88	65.2	0	0	---	0.00	30.023 
01:45	68.9	68.9	68.9	88	65.2	0	0	---	0.00	30.021 
01:50	68.8	68.8	68.8	88	65.1	0	0	---	0.00	30.021 
01:55	68.6	68.6	68.6	88	64.9	0	0	---	0.00	30.021 
02:00	68.4	68.4	68.4	89	65.0	0	0	---	0.00	30.022 
02:05	68.3	68.3	68.3	88	64.6	0	0	---	0.00	30.022 
02:10	68.1	68.1	68.1	89	64.7	0	0	---	0.00	30.022 
02:15	67.9	67.9	67.9	89	64.5	0	0	---	0.00	30.023 
02:20	67.8	67.8	67.8	89	64.4	0	0	---	0.00	30.023 
02:25	67.8	67.8	67.8	90	64.8	0	0	---	0.00	30.023 
02:30	67.6	67.6	67.6	90	64.6	0	0	---	0.00	30.024 
02:35	67.4	67.4	67.4	90	64.4	0	0	---	0.00	30.024 
02:40	67.3	67.3	67.3	90	64.3	0	0	---	0.00	30.024 
02:45	67.1	67.1	67.1	90	64.1	0	0	---	0.00	30.025 
02:50	67.1	67.1	67.1	91	64.4	0	0	---	0.00	30.025 
02:55	67.1	67.1	67.1	91	64.4	0	0	---	0.00	30.025 
03:00	66.9	66.9	66.9	91	64.2	0	0	---	0.00	30.026 
03:05	66.9	66.9	66.9	91	64.2	0	0	---	0.00	30.026 
03:10	66.8	66.8	66.8	91	64.1	0	0	---	0.00	30.026 
03:15	66.6	66.6	66.6	91	63.9	0	0	---	0.00	30.030 
03:20	66.4	66.4	66.4	91	63.7	0	0	---	0.00	30.030 
03:25	66.3	66.3	66.3	91	63.6	0	0	---	0.00	30.030 
03:30	66.1	66.1	66.1	91	63.4	0	0	---	0.00	30.031 
03:35	66.1	66.1	66.1	92	63.7	0	0	---	0.00	30.031 
03:40	66.0	66.0	66.0	92	63.6	0	0	---	0.00	30.031 
03:45	65.8	65.8	65.8	92	63.4	0	0	---	0.00	30.029 
03:50	65.8	65.8	65.8	92	63.4	0	0	---	0.00	30.029 
03:55	65.6	65.6	65.6	92	63.2	0	0	---	0.00	30.029 
04:00	65.5	65.5	65.5	92	63.1	0	0	---	0.00	30.028 
04:05	65.5	65.5	65.5	93	63.4	0	0	---	0.00	30.028 
04:10	65.5	65.5	65.5	93	63.4	0	0	---	0.00	30.028 
04:15	65.5	65.5	65.5	93	63.4	0	0	---	0.00	30.031 
04:20	65.3	65.3	65.3	93	63.2	0	0	---	0.00	30.031 
04:25	65.2	65.2	65.2	93	63.1	0	0	---	0.00	30.031 
04:30	65.2	65.2	65.2	93	63.1	0	0	---	0.00	30.040 
04:35	65.0	65.0	65.0	93	62.9	0	0	---	0.00	30.040 
04:40	65.0	65.0	65.0	93	62.9	0	0	---	0.00	30.040 
04:45	64.8	64.8	64.8	94	63.0	0	0	---	0.00	30.039 
04:50	64.8	64.8	64.8	94	63.0	0	0	---	0.00	30.039 
04:55	64.7	64.7	64.7	94	62.9	0	0	---	0.00	30.039 
05:00	64.5	64.5	64.5	93	62.4	0	0	---	0.00	30.036 
05:05	64.5	64.5	64.5	94	62.7	0	0	---	0.00	30.036 
05:10	64.3	64.3	64.3	94	62.5	0	0	---	0.00	30.036 
05:15	64.3	64.3	64.3	94	62.5	0	0	---	0.00	30.040 
05:20	64.3	64.3	64.3	94	62.5	0	0	---	0.00	30.040 
05:25	64.3	64.3	64.3	94	62.5	0	0	---	0.00	30.040 
05:30	64.2	64.2	64.2	94	62.4	0	0	---	0.00	30.042 
05:35	64.2	64.2	64.2	94	62.4	0	0	---	0.00	30.042 
05:40	64.0	64.0	64.0	94	62.2	0	0	---	0.00	30.042 
05:45	63.9	63.9	63.9	94	62.1	0	0	---	0.00	30.039 
05:50	63.9	63.9	63.9	94	62.1	0	0	---	0.00	30.039 
05:55	63.7	63.7	63.7	94	61.9	0	0	---	0.00	30.039 
06:00	63.7	63.7	63.7	94	61.9	0	0	---	0.00	30.038 
06:05	63.7	63.7	63.7	94	61.9	0	0	---	0.00	30.038 
06:10	63.7	63.7	63.7	94	61.9	0	0	---	0.00	30.038 
06:15	63.7	63.7	63.7	95	62.2	0	0	---	0.00	30.042 
06:20	63.5	63.5	63.5	94	61.7	0	0	---	0.00	30.042 
06:25	63.5	63.5	63.5	95	62.0	0	0	---	0.00	30.042 
06:30	63.5	63.5	63.5	95	62.0	0	0	---	0.00	30.040 
06:35	63.5	63.5	63.5	95	62.0	0	0	---	0.00	30.040 
06:40	63.4	63.4	63.4	95	61.9	0	0	---	0.00	30.040 
06:45	63.4	63.4	63.4	95	61.9	0	0	---	0.00	30.040 
06:50	63.5	63.5	63.5	95	62.0	0	0	---	0.00	30.040 
06:55	63.5	63.5	63.5	95	62.0	0	0	---	0.00	30.040 
07:00	63.7	63.7	63.7	95	62.2	0	0	---	0.00	30.041 
07:05	63.9	63.9	63.9	95	62.4	0	0	---	0.00	30.041 
07:10	64.2	64.2	64.2	96	63.0	0	0	---	0.00	30.041 
07:15	64.3	64.3	64.3	96	63.1	0	0	---	0.00	30.042 
07:20	64.5	64.5	64.5	96	63.3	0	0	---	0.00	30.042 
07:25	65.0	65.0	65.0	96	63.8	0	0	---	0.00	30.042 
07:30	65.5	65.5	65.5	96	64.3	0	0	---	0.00	30.034 
07:35	66.1	66.1	66.1	96	64.9	0	0	---	0.00	30.034 
07:40	66.8	66.8	66.8	96	65.6	0	0	---	0.00	30.034 
07:45	67.3	67.3	67.3	96	66.1	0	0	---	0.00	30.033 
07:50	67.8	67.8	67.8	96	66.6	0	0	---	0.00	30.033 
07:55	68.4	68.4	68.4	95	66.9	0	0	---	0.00	30.033 
08:00	69.4	69.4	69.4	92	67.0	0	0	---	0.00	30.035 
08:05	70.4	70.4	70.4	90	67.3	0	0	---	0.00	30.035 
08:10	71.5	71.5	71.5	86	67.1	0	0	---	0.00	30.035 
08:15	72.5	72.5	72.5	82	66.7	0	0	---	0.00	30.043 
08:20	73.7	73.7	73.7	80	67.1	0	0	---	0.00	30.043 
08:25	74.6	74.6	74.6	77	66.9	0	0	---	0.00	30.043 
08:30	75.3	75.3	76.4	76	67.2	0	0	---	0.00	30.051 
08:35	76.0	76.0	77.4	74	67.1	0	0	---	0.00	30.051 
08:40	76.5	76.5	78.1	72	66.8	0	0	---	0.00	30.051 
08:45	77.0	77.0	78.7	72	67.3	0	0	---	0.00	30.056 
08:50	77.6	77.6	79.5	70	67.0	0	0	---	0.00	30.056 
08:55	78.1	78.1	80.1	69	67.1	0	0	---	0.00	30.056 
09:00	78.6	78.6	80.8	70	68.0	0	0	---	0.00	30.054 
09:05	79.4	79.4	81.5	64	66.1	0	0	---	0.00	30.054 
09:10	79.9	79.9	82.1	64	66.6	0	0	---	0.00	30.054 
09:15	80.5	80.5	82.8	63	66.7	0	0	---	0.00	30.062 
09:20	80.9	80.9	83.1	61	66.2	0	0	---	0.00	30.062 
09:25	81.2	81.2	83.3	60	66.0	0	2	270	0.00	30.062 
09:30	81.6	81.6	83.9	60	66.3	0	2	270	0.00	30.072 
09:35	82.2	82.2	84.2	57	65.4	0	2	270	0.00	30.072 
09:40	82.6	82.6	84.7	57	65.8	1	2	270	0.00	30.072 
09:45	83.0	83.0	84.9	55	65.1	1	3	248	0.00	30.069 
09:50	83.4	83.4	85.2	54	65.0	1	3	248	0.00	30.069 
09:55	83.8	83.8	85.7	54	65.3	1	3	248	0.00	30.069 
10:00	84.3	84.3	86.2	53	65.3	1	2	270	0.00	30.068 
10:05	84.5	84.5	86.0	51	64.4	2	4	248	0.00	30.068 
10:10	84.9	84.9	86.6	51	64.7	1	3	248	0.00	30.068 
10:15	85.3	85.3	87.1	51	65.1	1	3	248	0.00	30.073 
10:20	85.5	85.5	87.4	51	65.3	2	3	248	0.00	30.073 
10:25	85.7	85.7	87.7	51	65.5	1	3	248	0.00	30.073 
10:30	86.3	86.3	88.6	51	66.0	1	3	248	0.00	30.078 
10:35	86.7	86.7	89.3	51	66.4	1	3	248	0.00	30.078 
10:40	87.0	87.0	89.4	50	66.1	1	3	270	0.00	30.078 
10:45	87.0	87.0	89.1	49	65.5	1	2	292	0.00	30.078 
10:50	87.2	87.2	89.7	50	66.3	1	4	248	0.00	30.078 
10:55	87.6	87.6	90.4	50	66.6	0	3	248	0.00	30.078 
11:00	87.6	87.6	90.7	51	67.2	1	3	292	0.00	30.072 
11:05	88.0	88.0	90.7	49	66.4	1	3	248	0.00	30.072 
11:10	88.2	88.2	91.4	50	67.2	1	3	248	0.00	30.072 
11:15	88.4	88.4	91.0	48	66.2	1	3	248	0.00	30.076 
11:20	88.8	88.8	91.6	48	66.5	1	2	248	0.00	30.076 
11:25	89.0	89.0	92.8	50	67.9	1	2	248	0.00	30.076 
11:30	89.3	89.3	92.1	47	66.4	1	2	248	0.00	30.079 
11:35	89.7	89.7	93.6	49	68.0	1	3	248	0.00	30.079 
11:40	89.9	89.9	92.3	45	65.7	1	3	248	0.00	30.079 
11:45	90.1	90.1	94.3	49	68.3	1	3	248	0.00	30.071 
11:50	90.7	90.7	95.9	50	69.5	0	3	248	0.00	30.071 
11:55	91.0	91.0	94.2	45	66.7	1	3	248	0.00	30.071 
12:00	91.2	91.2	95.0	46	67.5	1	3	248	0.00	30.068 
12:05	91.0	91.0	93.4	43	65.4	1	4	180	0.00	30.068 
12:10	91.0	91.0	93.8	44	66.0	1	3	270	0.00	30.068 
12:15	91.0	91.0	96.0	49	69.1	0	2	292	0.00	30.070 
12:20	91.2	91.2	95.0	46	67.5	1	3	338	0.00	30.070 
12:25	91.0	91.0	93.8	44	66.0	1	3	338	0.00	30.070 
12:30	91.0	91.0	94.2	45	66.7	1	2	338	0.00	30.068 
12:35	91.0	91.0	94.6	46	67.3	0	2	338	0.00	30.068 
12:40	91.0	91.0	94.6	46	67.3	1	3	270	0.00	30.068 
12:45	91.4	91.4	96.8	49	69.5	1	4	45	0.00	30.067 
12:50	92.1	92.1	96.7	46	68.3	1	2	292	0.00	30.067 
12:55	92.1	92.1	96.7	46	68.3	1	5	248	0.00	30.067 
13:00	92.3	92.3	97.6	47	69.1	1	2	292	0.00	30.063 
13:05	92.1	92.1	96.2	45	67.7	1	3	248	0.00	30.063 
13:10	92.3	92.3	96.5	45	67.8	0	1	248	0.00	30.063 
13:15	92.5	92.5	97.9	47	69.3	1	2	248	0.00	30.060 
13:20	92.7	92.7	97.8	46	68.8	1	3	45	0.00	30.060 
13:25	92.5	92.5	96.9	45	68.0	1	3	270	0.00	30.060 
13:30	92.3	92.3	97.0	46	68.5	0	2	270	0.00	30.059 
13:35	92.5	92.5	95.5	42	66.0	1	3	248	0.00	30.059 
13:40	92.5	92.5	95.0	41	65.3	1	4	112	0.00	30.059 
13:45	92.5	92.5	95.5	42	66.0	1	3	338	0.00	30.055 
13:50	92.7	92.7	94.5	39	64.1	2	4	248	0.00	30.055 
13:55	92.7	92.7	94.5	39	64.1	1	3	248	0.00	30.055 
14:00	92.9	92.9	94.8	39	64.2	0	3	248	0.00	30.055 
14:05	93.2	93.2	94.9	38	63.8	1	2	248	0.00	30.055 
14:10	92.9	92.9	97.2	44	67.7	0	2	270	0.00	30.055 
14:15	92.5	92.5	96.9	45	68.0	0	1	270	0.00	30.051 
14:20	92.5	92.5	97.9	47	69.3	0	3	270	0.00	30.051 
14:25	92.5	92.5	95.5	42	66.0	0	1	270	0.00	30.051 
14:30	92.9	92.9	96.2	42	66.4	0	2	270	0.00	30.039 
14:35	93.2	93.2	96.2	41	65.9	1	3	270	0.00	30.039 
14:40	93.2	93.2	98.8	46	69.3	2	5	68	0.00	30.039 
14:45	92.5	92.5	95.9	43	66.7	3	5	90	0.00	30.037 
14:50	92.7	92.7	97.8	46	68.8	1	3	248	0.00	30.037 
14:55	93.2	93.2	97.7	44	68.0	1	4	270	0.00	30.037 
15:00	92.9	92.9	98.2	46	69.0	2	5	90	0.00	30.034 
15:05	92.5	92.5	96.9	45	68.0	2	5	90	0.00	30.034 
15:10	92.3	92.3	97.0	46	68.5	2	5	90	0.00	30.034 
15:15	92.5	92.5	99.0	49	70.5	2	4	90	0.00	30.034 
15:20	92.3	92.3	97.0	46	68.5	2	5	112	0.00	30.034 
15:25	92.3	92.3	98.6	49	70.3	1	4	90	0.00	30.034 
15:30	92.1	92.1	97.7	48	69.5	2	6	90	0.00	30.032 
15:35	91.6	91.6	97.7	50	70.3	2	5	135	0.00	30.032 
15:40	91.2	91.2	96.9	50	69.9	2	5	90	0.00	30.032 
15:45	91.8	91.8	98.1	50	70.5	1	3	112	0.00	30.027 
15:50	92.3	92.3	98.6	49	70.3	3	6	90	0.00	30.027 
15:55	92.3	92.3	97.6	47	69.1	2	5	90	0.00	30.027 
16:00	92.3	92.3	97.6	47	69.1	2	5	90	0.00	30.028 
16:05	92.3	92.3	97.6	47	69.1	2	6	112	0.00	30.028 
16:10	92.1	92.1	96.2	45	67.7	3	6	90	0.00	30.028 
16:15	92.5	92.5	97.4	46	68.7	2	4	90	0.00	30.024 
16:20	92.9	92.9	96.7	43	67.1	2	4	90	0.00	30.024 
16:25	92.9	92.9	98.2	46	69.0	2	5	270	0.00	30.024 
16:30	92.7	92.7	97.3	45	68.2	2	7	90	0.00	30.024 
16:35	92.7	92.7	96.3	43	66.9	2	4	248	0.00	30.024 
16:40	92.7	92.7	96.8	44	67.5	2	4	90	0.00	30.024 
16:45	92.9	92.9	96.7	43	67.1	1	5	270	0.00	30.025 
16:50	93.2	93.2	96.7	42	66.6	1	6	270	0.00	30.025 
16:55	93.2	93.2	97.7	44	68.0	1	4	112	0.00	30.025 
17:00	93.4	93.4	96.6	41	66.1	1	3	248	0.00	30.016 
17:05	93.2	93.2	95.8	40	65.2	2	5	90	0.00	30.016 
17:10	93.2	93.2	95.8	40	65.2	2	4	248	0.00	30.016 
17:15	92.9	92.9	94.8	39	64.2	2	5	45	0.00	30.014 
17:20	92.5	92.5	93.0	36	61.6	2	7	315	0.00	30.014 
17:25	92.7	92.7	94.1	38	63.3	1	3	270	0.00	30.014 
17:30	92.7	92.7	93.3	36	61.8	2	4	68	0.00	30.012 
17:35	92.5	92.5	93.4	37	62.4	3	7	90	0.00	30.012 
17:40	92.3	92.3	93.4	38	63.0	1	3	90	0.00	30.012 
17:45	92.3	92.3	93.8	39	63.7	2	6	248	0.00	30.004 
17:50	92.1	92.1	93.5	39	63.5	1	5	248	0.00	30.004 
17:55	91.8	91.8	93.9	41	64.7	2	5	68	0.00	30.004 
18:00	91.6	91.6	94.4	43	65.9	2	8	90	0.00	29.997 
18:05	91.2	91.2	94.1	44	66.2	1	9	22	0.00	29.997 
18:10	90.7	90.7	94.1	46	67.0	3	6	90	0.00	29.997 
18:15	90.7	90.7	94.1	46	67.0	1	3	68	0.00	29.997 
18:20	90.5	90.5	93.3	45	66.2	2	5	112	0.00	29.997 
18:25	90.3	90.3	93.4	46	66.7	1	4	90	0.00	29.997 
18:30	90.1	90.1	93.5	47	67.1	2	5	90	0.00	29.998 
18:35	89.9	89.9	93.5	48	67.5	2	9	248	0.00	29.998 
18:40	89.9	89.9	93.5	48	67.5	2	6	248	0.00	29.998 
18:45	89.7	89.7	94.0	50	68.5	1	4	248	0.00	29.998 
18:50	89.5	89.5	94.5	52	69.5	1	5	248	0.00	29.998 
18:55	89.0	89.0	92.8	50	67.9	2	4	90	0.00	29.998 
19:00	89.0	89.0	93.2	51	68.5	2	6	90	0.00	30.001 
19:05	89.0	89.0	92.8	50	67.9	0	3	248	0.00	30.001 
19:10	88.8	88.8	92.0	49	67.1	1	6	45	0.00	30.001 
19:15	88.6	88.6	91.0	47	65.7	1	4	90	0.00	29.997 
19:20	88.4	88.4	90.6	47	65.6	1	4	248	0.00	29.997 
19:25	88.4	88.4	90.6	47	65.6	1	2	248	0.00	29.997 
19:30	88.2	88.2	90.3	47	65.4	1	4	248	0.00	29.997 
19:35	88.2	88.2	90.0	46	64.8	1	3	0	0.00	29.997 
19:40	88.0	88.0	90.3	48	65.8	0	2	0	0.00	29.997 
19:45	87.8	87.8	89.4	46	64.4	1	3	90	0.00	29.993 
19:50	87.6	87.6	89.4	47	64.8	0	2	292	0.00	29.993 
19:55	87.6	87.6	89.7	48	65.4	1	3	270	0.00	29.993 
20:00	87.4	87.4	89.4	48	65.3	1	3	270	0.00	29.992 
20:05	87.4	87.4	89.7	49	65.9	0	2	270	0.00	29.992 
20:10	87.4	87.4	90.1	50	66.4	1	3	270	0.00	29.992 
20:15	87.2	87.2	90.1	51	66.8	0	2	270	0.00	29.984 
20:20	86.7	86.7	89.6	52	66.9	0	1	270	0.00	29.984 
20:25	86.5	86.5	89.6	53	67.3	0	1	270	0.00	29.984 
20:30	86.3	86.3	89.6	54	67.7	0	1	270	0.00	29.981 
20:35	85.9	85.9	89.2	55	67.8	0	1	270	0.00	29.981 
20:40	85.7	85.7	89.2	56	68.2	0	0	---	0.00	29.981 
20:45	85.3	85.3	88.5	56	67.8	0	0	---	0.00	29.987 
20:50	84.9	84.9	88.2	57	67.9	0	0	---	0.00	29.987 
20:55	84.5	84.5	87.8	58	68.1	0	0	---	0.00	29.987 
21:00	84.1	84.1	87.4	59	68.2	0	0	---	0.00	29.990 
21:05	83.8	83.8	87.2	60	68.4	0	0	---	0.00	29.990 
21:10	83.4	83.4	86.8	61	68.5	0	0	---	0.00	29.990 
21:15	83.2	83.2	86.7	62	68.8	0	0	---	0.00	29.986 
21:20	82.8	82.8	86.5	64	69.3	0	0	---	0.00	29.986 
21:25	82.4	82.4	85.8	64	69.0	0	0	---	0.00	29.986 
21:30	82.0	82.0	85.4	65	69.0	0	0	---	0.00	29.985 
21:35	81.6	81.6	84.9	66	69.1	0	0	---	0.00	29.985 
21:40	81.1	81.1	84.3	67	69.1	0	1	270	0.00	29.985 
21:45	80.7	80.7	83.8	68	69.1	0	0	---	0.00	29.985 
21:50	80.5	80.5	83.5	68	68.9	0	0	---	0.00	29.985 
21:55	80.1	80.1	83.1	70	69.4	0	0	---	0.00	29.985 
22:00	79.8	79.8	82.7	71	69.5	0	0	---	0.00	29.988 
22:05	79.6	79.6	82.5	72	69.8	0	0	---	0.00	29.988 
22:10	79.2	79.2	82.0	73	69.8	0	0	---	0.00	29.988 
22:15	78.8	78.8	81.3	73	69.4	0	0	---	0.00	29.995 
22:20	78.6	78.6	81.1	74	69.6	0	0	---	0.00	29.995 
22:25	78.3	78.3	80.6	74	69.3	0	0	---	0.00	29.995 
22:30	78.1	78.1	80.3	75	69.5	0	0	---	0.00	29.997 
22:35	77.7	77.7	79.7	76	69.5	0	0	---	0.00	29.997 
22:40	77.6	77.6	79.6	77	69.8	0	0	---	0.00	29.997 
22:45	77.4	77.4	79.3	77	69.6	0	0	---	0.00	30.003 
22:50	77.2	77.2	79.0	77	69.4	0	0	---	0.00	30.003 
22:55	77.0	77.0	78.6	78	69.6	0	0	---	0.00	30.003 
23:00	76.8	76.8	78.3	78	69.4	0	0	---	0.00	30.004 
23:05	76.7	76.7	78.1	79	69.7	0	0	---	0.00	30.004 
23:10	76.5	76.5	77.8	79	69.5	0	0	---	0.00	30.004 
23:15	76.3	76.3	77.5	80	69.7	0	0	---	0.00	30.003 
23:20	76.1	76.1	77.1	80	69.5	0	0	---	0.00	30.003 
23:25	76.0	76.0	77.0	80	69.4	0	0	---	0.00	30.003 
23:30	75.8	75.8	76.6	81	69.5	0	0	---	0.00	30.003 
23:35	75.6	75.6	76.2	82	69.7	0	0	---	0.00	30.003 
23:40	75.4	75.4	75.9	82	69.5	0	0	---	0.00	30.003 
23:45	75.3	75.3	75.6	83	69.8	0	0	---	0.00	30.004 
23:50	75.1	75.1	75.3	83	69.6	0	0	---	0.00	30.004 
23:55	74.9	74.9	74.9	83	69.4	0	0	---	0.00	30.004 

CoCoRaHS
IN-AL-39
A2 Web Hosting
Creative Commons License
GoDaddy
Look for:

loaded 2017-10-18 07:09:55 • last modified 2010-11-18 10:43:29
Privacy PolicyDisclaimer
• wx.awcolley.com is powered by PmWiki v.2002016 •
• all content (unless otherwise noted) © 2017 A W Colley